Time;durP1;ratioP1;P1;durP2;ratioP2;P2;SDS_P1;SDS_P2;PMS_P1;PMS_P2;Temp;Humidity;BMP_temperature;BMP_pressure;BME280_temperature;BME280_humidity;BME280_pressure;Samples;Min_cycle;Max_cycle;Signal;HPM_P1;HPM_P2
2023/10/25 00:02:02;;;;;;;;;;;19.10;70.00;;;;;;7394868;19;4276;-62
2023/10/25 00:04:28;;;;;;;;;;;19.10;69.90;;;;;;7403290;19;1757;-62
2023/10/25 00:06:53;;;;;;;;;;;19.10;69.80;;;;;;7401313;19;1887;-62
2023/10/25 00:09:19;;;;;;;;;;;19.10;69.90;;;;;;7397252;19;4005;-62
2023/10/25 00:11:44;;;;;;;;;;;19.10;69.90;;;;;;7400930;19;2969;-62
2023/10/25 00:14:10;;;;;;;;;;;19.10;69.80;;;;;;7402201;19;1740;-62
2023/10/25 00:16:35;;;;;;;;;;;19.10;69.70;;;;;;7402143;19;1906;-62
2023/10/25 00:19:00;;;;;;;;;;;19.10;69.90;;;;;;7401296;19;1791;-62
2023/10/25 00:21:26;;;;;;;;;;;19.10;69.80;;;;;;7400692;19;1713;-62
2023/10/25 00:23:51;;;;;;;;;;;19.10;70.60;;;;;;7398953;19;4481;-62
2023/10/25 00:26:17;;;;;;;;;;;19.10;69.70;;;;;;7402810;19;3480;-62
2023/10/25 00:28:42;;;;;;;;;;;19.10;69.70;;;;;;7400126;19;1721;-62
2023/10/25 00:31:08;;;;;;;;;;;19.10;69.70;;;;;;7397166;19;5243;-62
2023/10/25 00:33:33;;;;;;;;;;;19.10;69.60;;;;;;7400165;19;1943;-62
2023/10/25 00:35:59;;;;;;;;;;;19.10;69.70;;;;;;7400598;19;2359;-61
2023/10/25 00:38:24;;;;;;;;;;;19.10;69.60;;;;;;7397858;19;1777;-62
2023/10/25 00:40:49;;;;;;;;;;;19.00;69.60;;;;;;7398913;19;4182;-65
2023/10/25 00:43:22;;;;;;;;;;;19.00;69.60;;;;;;7400205;19;3248;-62
2023/10/25 00:45:52;;;;;;;;;;;19.00;69.60;;;;;;7396346;19;4602;-63
2023/10/25 00:48:17;;;;;;;;;;;19.00;69.50;;;;;;7399149;19;1733;-63
2023/10/25 00:50:43;;;;;;;;;;;19.00;69.50;;;;;;7398549;19;1841;-61
2023/10/25 00:53:08;;;;;;;;;;;19.00;69.40;;;;;;7400671;19;1860;-61
2023/10/25 00:55:34;;;;;;;;;;;19.00;69.40;;;;;;7398111;19;5515;-62
2023/10/25 00:57:59;;;;;;;;;;;19.00;69.40;;;;;;7400578;19;1686;-62
2023/10/25 01:00:25;;;;;;;;;;;19.00;69.30;;;;;;7396832;19;6589;-64
2023/10/25 01:02:51;;;;;;;;;;;19.00;69.30;;;;;;7401996;19;1626;-61
2023/10/25 01:05:16;;;;;;;;;;;19.00;69.40;;;;;;7400637;19;1978;-62
2023/10/25 01:07:42;;;;;;;;;;;19.00;69.30;;;;;;7399209;19;5324;-62
2023/10/25 01:10:08;;;;;;;;;;;19.00;69.30;;;;;;7398811;19;2016;-61
2023/10/25 01:12:33;;;;;;;;;;;18.90;69.40;;;;;;7398831;19;3251;-61
2023/10/25 01:14:59;;;;;;;;;;;18.90;69.20;;;;;;7396157;19;3584;-63
2023/10/25 01:17:24;;;;;;;;;;;18.90;69.30;;;;;;7400108;19;2770;-63
2023/10/25 01:19:49;;;;;;;;;;;18.90;69.30;;;;;;7397976;19;4558;-62
2023/10/25 01:22:15;;;;;;;;;;;18.90;69.10;;;;;;7397234;19;3125;-62
2023/10/25 01:24:42;;;;;;;;;;;19.00;69.00;;;;;;7399116;19;1727;-61
2023/10/25 01:27:08;;;;;;;;;;;19.00;68.70;;;;;;7401558;19;1505;-62
2023/10/25 01:29:33;;;;;;;;;;;19.10;68.60;;;;;;7398400;19;1853;-64
2023/10/25 01:31:59;;;;;;;;;;;19.10;68.70;;;;;;7401513;19;1761;-62
2023/10/25 01:34:24;;;;;;;;;;;19.10;68.20;;;;;;7399695;19;1800;-61
2023/10/25 01:36:50;;;;;;;;;;;19.20;67.90;;;;;;7395045;19;6269;-62
2023/10/25 01:39:15;;;;;;;;;;;19.30;67.80;;;;;;7395967;19;2832;-62
2023/10/25 01:41:41;;;;;;;;;;;19.30;67.60;;;;;;7399664;19;1775;-61
2023/10/25 01:44:06;;;;;;;;;;;19.40;67.50;;;;;;7392357;19;5270;-62
2023/10/25 01:46:31;;;;;;;;;;;19.40;67.20;;;;;;7396278;19;1682;-61
2023/10/25 01:48:59;;;;;;;;;;;19.40;67.10;;;;;;7396934;19;1850;-64
2023/10/25 01:51:24;;;;;;;;;;;19.40;67.10;;;;;;7394180;19;4869;-61
2023/10/25 01:53:50;;;;;;;;;;;19.40;67.10;;;;;;7395186;19;5980;-62
2023/10/25 01:56:15;;;;;;;;;;;19.40;67.20;;;;;;7400504;19;2029;-62
2023/10/25 01:58:41;;;;;;;;;;;19.30;67.00;;;;;;7397958;19;1583;-62
2023/10/25 02:01:07;;;;;;;;;;;19.30;67.00;;;;;;7397183;19;1651;-62
2023/10/25 02:03:32;;;;;;;;;;;19.30;67.20;;;;;;7400235;19;1561;-61
2023/10/25 02:05:58;;;;;;;;;;;19.30;67.20;;;;;;7392710;19;5126;-62
2023/10/25 02:08:23;;;;;;;;;;;19.30;67.30;;;;;;7397876;19;1647;-62
2023/10/25 02:10:49;;;;;;;;;;;19.30;67.30;;;;;;7394047;19;4897;-62
2023/10/25 02:13:14;;;;;;;;;;;19.30;67.40;;;;;;7398757;19;3485;-62
2023/10/25 02:15:39;;;;;;;;;;;19.20;67.40;;;;;;7396143;19;1789;-62
2023/10/25 02:18:05;;;;;;;;;;;19.20;67.50;;;;;;7396009;19;4144;-62
2023/10/25 02:20:30;;;;;;;;;;;19.20;67.50;;;;;;7396450;19;1754;-62
2023/10/25 02:22:56;;;;;;;;;;;19.20;67.50;;;;;;7397673;19;1814;-62
2023/10/25 02:25:21;;;;;;;;;;;19.20;67.50;;;;;;7393269;19;4481;-61
2023/10/25 02:27:47;;;;;;;;;;;19.20;67.50;;;;;;7396683;19;3411;-61
2023/10/25 02:30:12;;;;;;;;;;;19.10;67.50;;;;;;7396354;19;2419;-64
2023/10/25 02:32:37;;;;;;;;;;;19.10;67.60;;;;;;7397789;19;1797;-62
2023/10/25 02:35:03;;;;;;;;;;;19.10;67.60;;;;;;7398392;19;1478;-61
2023/10/25 02:37:28;;;;;;;;;;;19.10;67.60;;;;;;7393489;19;2302;-62
2023/10/25 02:39:54;;;;;;;;;;;19.10;67.60;;;;;;7396084;19;1605;-62
2023/10/25 02:42:19;;;;;;;;;;;19.10;67.60;;;;;;7395026;19;4417;-62
2023/10/25 02:44:45;;;;;;;;;;;19.10;67.60;;;;;;7395840;19;1773;-64
2023/10/25 02:47:10;;;;;;;;;;;19.10;67.60;;;;;;7393645;19;4097;-64
2023/10/25 02:49:36;;;;;;;;;;;19.10;67.50;;;;;;7396456;19;1842;-64
2023/10/25 02:52:01;;;;;;;;;;;19.10;67.60;;;;;;7395368;19;1647;-62
2023/10/25 02:54:27;;;;;;;;;;;19.10;67.50;;;;;;7396737;19;1699;-64
2023/10/25 02:56:52;;;;;;;;;;;19.10;67.50;;;;;;7392781;19;4323;-64
2023/10/25 02:59:18;;;;;;;;;;;19.10;67.40;;;;;;7396793;19;1666;-62
2023/10/25 03:01:43;;;;;;;;;;;19.10;67.50;;;;;;7396859;19;1824;-62
2023/10/25 03:04:08;;;;;;;;;;;19.10;67.50;;;;;;7392049;19;6042;-62
2023/10/25 03:06:34;;;;;;;;;;;19.10;67.40;;;;;;7396298;19;1710;-61
2023/10/25 03:08:59;;;;;;;;;;;19.10;67.50;;;;;;7392638;19;5436;-61
2023/10/25 03:11:25;;;;;;;;;;;19.10;67.50;;;;;;7395653;19;3081;-62
2023/10/25 03:13:50;;;;;;;;;;;19.00;67.40;;;;;;7394311;19;5463;-62
2023/10/25 03:16:16;;;;;;;;;;;19.00;67.40;;;;;;7395166;19;1758;-62
2023/10/25 03:18:41;;;;;;;;;;;19.00;67.50;;;;;;7393690;19;4138;-62
2023/10/25 03:21:06;;;;;;;;;;;19.00;67.50;;;;;;7395217;19;1860;-62
2023/10/25 03:23:32;;;;;;;;;;;19.00;68.30;;;;;;7391042;19;4231;-62
2023/10/25 03:26:07;;;;;;;;;;;19.00;67.60;;;;;;7394402;19;1854;-62
2023/10/25 03:28:33;;;;;;;;;;;18.90;67.50;;;;;;7395885;19;1792;-61
2023/10/25 03:31:03;;;;;;;;;;;18.90;67.50;;;;;;7391936;19;4419;-61
2023/10/25 03:33:28;;;;;;;;;;;18.90;67.40;;;;;;7395460;19;1599;-64
2023/10/25 03:35:54;;;;;;;;;;;18.90;67.60;;;;;;7394561;19;1560;-62
2023/10/25 03:38:19;;;;;;;;;;;18.90;67.70;;;;;;7387041;19;4822;-61
2023/10/25 03:40:46;;;;;;;;;;;18.90;67.60;;;;;;7390974;19;2615;-62
2023/10/25 03:43:11;;;;;;;;;;;18.90;67.60;;;;;;7390815;19;3795;-62
2023/10/25 03:45:37;;;;;;;;;;;18.90;67.70;;;;;;7394919;19;3181;-61
2023/10/25 03:48:03;;;;;;;;;;;18.90;67.60;;;;;;7393110;19;5957;-61
2023/10/25 03:50:28;;;;;;;;;;;18.90;67.60;;;;;;7395206;19;1850;-62
2023/10/25 03:52:53;;;;;;;;;;;18.90;67.50;;;;;;7391134;19;6204;-61
2023/10/25 03:55:19;;;;;;;;;;;18.90;67.60;;;;;;7391464;19;4224;-63
2023/10/25 03:57:44;;;;;;;;;;;18.90;67.50;;;;;;7393872;19;1558;-61
2023/10/25 04:00:10;;;;;;;;;;;18.90;67.40;;;;;;7392508;19;5056;-62
2023/10/25 04:02:36;;;;;;;;;;;18.90;67.30;;;;;;7390221;19;2881;-61
2023/10/25 04:05:01;;;;;;;;;;;18.90;67.20;;;;;;7395941;19;1909;-64
2023/10/25 04:07:27;;;;;;;;;;;18.90;67.20;;;;;;7392333;19;4076;-62
2023/10/25 04:09:52;;;;;;;;;;;18.90;67.20;;;;;;7387518;19;4023;-61
2023/10/25 04:12:18;;;;;;;;;;;18.90;67.20;;;;;;7393938;19;1797;-61
2023/10/25 04:14:46;;;;;;;;;;;18.90;67.20;;;;;;7395136;19;1624;-61
2023/10/25 04:17:12;;;;;;;;;;;18.90;67.00;;;;;;7391518;19;5653;-61
2023/10/25 04:19:37;;;;;;;;;;;19.00;67.00;;;;;;7393978;19;1691;-61
2023/10/25 04:22:03;;;;;;;;;;;19.00;66.90;;;;;;7392617;19;1724;-62
2023/10/25 04:24:28;;;;;;;;;;;19.00;66.80;;;;;;7390031;19;5121;-62
2023/10/25 04:26:54;;;;;;;;;;;19.00;66.80;;;;;;7394935;19;1607;-61
2023/10/25 04:29:19;;;;;;;;;;;19.00;66.70;;;;;;7391327;19;5719;-61
2023/10/25 04:31:45;;;;;;;;;;;19.00;66.70;;;;;;7394247;19;2217;-62
2023/10/25 04:34:10;;;;;;;;;;;19.00;66.60;;;;;;7394533;19;1844;-64
2023/10/25 04:36:36;;;;;;;;;;;19.00;66.60;;;;;;7389008;19;4705;-61
2023/10/25 04:39:01;;;;;;;;;;;19.00;66.50;;;;;;7393942;19;2037;-64
2023/10/25 04:41:27;;;;;;;;;;;19.00;66.50;;;;;;7393664;19;1653;-62
2023/10/25 04:43:52;;;;;;;;;;;19.00;66.60;;;;;;7390472;19;5470;-61
2023/10/25 04:46:17;;;;;;;;;;;19.00;66.60;;;;;;7391384;19;1534;-62
2023/10/25 04:48:43;;;;;;;;;;;19.00;66.70;;;;;;7392741;19;2959;-63
2023/10/25 04:51:13;;;;;;;;;;;19.00;66.50;;;;;;7393794;19;4041;-62
2023/10/25 04:53:42;;;;;;;;;;;18.90;66.50;;;;;;7400241;19;1614;-62
2023/10/25 04:56:07;;;;;;;;;;;18.90;66.60;;;;;;7398322;19;1658;-61
2023/10/25 04:58:33;;;;;;;;;;;18.90;66.70;;;;;;7397714;19;4582;-64
2023/10/25 05:00:58;;;;;;;;;;;18.90;66.70;;;;;;7400116;19;1549;-62
2023/10/25 05:03:23;;;;;;;;;;;18.90;66.60;;;;;;7400404;19;1570;-62
2023/10/25 05:05:49;;;;;;;;;;;18.90;66.60;;;;;;7396936;19;4988;-63
2023/10/25 05:08:15;;;;;;;;;;;18.90;66.40;;;;;;7399289;19;1629;-62
2023/10/25 05:10:40;;;;;;;;;;;18.90;66.40;;;;;;7396763;19;1851;-62
2023/10/25 05:13:06;;;;;;;;;;;18.90;66.40;;;;;;7397083;19;5490;-62
2023/10/25 05:15:35;;;;;;;;;;;18.90;66.30;;;;;;7401196;19;1828;-61
2023/10/25 05:18:00;;;;;;;;;;;18.90;66.30;;;;;;7400526;19;1897;-62
2023/10/25 05:20:26;;;;;;;;;;;19.00;66.30;;;;;;7400426;19;1803;-61
2023/10/25 05:22:52;;;;;;;;;;;19.00;66.20;;;;;;7400685;19;1770;-61
2023/10/25 05:25:17;;;;;;;;;;;19.00;66.20;;;;;;7400053;19;1531;-61
2023/10/25 05:27:43;;;;;;;;;;;19.00;66.30;;;;;;7392752;19;4565;-63
2023/10/25 05:30:09;;;;;;;;;;;18.90;66.30;;;;;;7398536;19;2118;-61
2023/10/25 05:32:35;;;;;;;;;;;19.00;66.20;;;;;;7400960;19;1573;-61
2023/10/25 05:35:01;;;;;;;;;;;18.90;66.10;;;;;;7400766;19;1684;-62
2023/10/25 05:37:27;;;;;;;;;;;18.90;66.10;;;;;;7398116;19;1834;-62
2023/10/25 05:39:52;;;;;;;;;;;18.90;66.20;;;;;;7395591;19;4269;-62
2023/10/25 05:42:19;;;;;;;;;;;18.90;66.20;;;;;;7399058;19;3071;-62
2023/10/25 05:44:45;;;;;;;;;;;18.90;66.20;;;;;;7397157;19;4466;-62
2023/10/25 05:47:10;;;;;;;;;;;18.90;66.30;;;;;;7397795;19;1609;-62
2023/10/25 05:49:36;;;;;;;;;;;18.90;66.30;;;;;;7391430;19;5108;-62
2023/10/25 05:52:02;;;;;;;;;;;18.90;66.50;;;;;;7395032;19;1706;-61
2023/10/25 05:54:27;;;;;;;;;;;18.80;66.40;;;;;;7395308;19;5143;-62
2023/10/25 05:56:53;;;;;;;;;;;18.80;66.30;;;;;;7399593;19;3015;-62
2023/10/25 05:59:18;;;;;;;;;;;18.80;66.40;;;;;;7396710;19;3151;-62
2023/10/25 06:01:46;;;;;;;;;;;18.80;66.40;;;;;;7394960;19;3722;-62
2023/10/25 06:04:11;;;;;;;;;;;18.80;66.40;;;;;;7390768;19;4217;-62
2023/10/25 06:06:37;;;;;;;;;;;18.80;66.50;;;;;;7398549;19;1541;-61
2023/10/25 06:09:03;;;;;;;;;;;18.70;66.40;;;;;;7397939;19;1705;-61
2023/10/25 06:11:29;;;;;;;;;;;18.80;66.50;;;;;;7397950;19;2014;-62
2023/10/25 06:13:54;;;;;;;;;;;18.80;66.50;;;;;;7395545;19;1938;-61
2023/10/25 06:16:20;;;;;;;;;;;18.80;66.40;;;;;;7397891;19;1949;-62
2023/10/25 06:18:45;;;;;;;;;;;18.70;66.40;;;;;;7385519;19;5012;-64
2023/10/25 06:21:11;;;;;;;;;;;18.70;66.50;;;;;;7392759;19;1019;-64
2023/10/25 06:23:36;;;;;;;;;;;18.70;66.50;;;;;;7394143;19;5732;-64
2023/10/25 06:26:03;;;;;;;;;;;18.70;66.40;;;;;;7398296;19;3447;-64
2023/10/25 06:28:29;;;;;;;;;;;18.70;66.50;;;;;;7396907;19;1657;-62
2023/10/25 06:30:55;;;;;;;;;;;18.70;66.60;;;;;;7391249;19;5947;-62
2023/10/25 06:33:20;;;;;;;;;;;18.70;66.50;;;;;;7396352;19;3489;-64
2023/10/25 06:35:46;;;;;;;;;;;18.80;66.50;;;;;;7394827;19;1742;-63
2023/10/25 06:38:11;;;;;;;;;;;18.80;66.50;;;;;;7397058;19;1798;-63
2023/10/25 06:40:37;;;;;;;;;;;18.80;66.40;;;;;;7392994;19;5250;-65
2023/10/25 06:43:03;;;;;;;;;;;18.80;66.20;;;;;;7392352;19;2773;-64
2023/10/25 06:45:28;;;;;;;;;;;18.80;66.20;;;;;;7392629;19;4132;-64
2023/10/25 06:47:54;;;;;;;;;;;18.80;66.20;;;;;;7393794;19;4141;-64
2023/10/25 06:50:20;;;;;;;;;;;18.80;66.10;;;;;;7381002;19;5450;-64
2023/10/25 06:52:45;;;;;;;;;;;18.90;66.00;;;;;;7393233;19;2803;-65
2023/10/25 06:55:11;;;;;;;;;;;19.00;65.70;;;;;;7395195;19;2528;-64
2023/10/25 06:57:36;;;;;;;;;;;19.10;65.50;;;;;;7394076;19;3392;-64
2023/10/25 07:00:04;;;;;;;;;;;19.20;65.50;;;;;;7391607;19;3623;-64
2023/10/25 07:02:36;;;;;;;;;;;19.30;65.20;;;;;;7391721;19;4898;-63
2023/10/25 07:05:14;;;;;;;;;;;19.30;64.90;;;;;;7392336;19;3178;-63
2023/10/25 07:07:40;;;;;;;;;;;19.40;64.90;;;;;;7395499;19;1743;-64
2023/10/25 07:10:09;;;;;;;;;;;19.50;65.40;;;;;;7390214;19;4431;-64
2023/10/25 07:12:34;;;;;;;;;;;19.80;64.80;;;;;;7387129;19;4099;-63
2023/10/25 07:15:00;;;;;;;;;;;20.50;63.40;;;;;;7385946;19;3395;-64
2023/10/25 07:17:27;;;;;;;;;;;21.10;61.30;;;;;;7385569;19;3587;-60
2023/10/25 07:19:54;;;;;;;;;;;21.60;59.90;;;;;;7393777;19;5236;-61
2023/10/25 07:22:19;;;;;;;;;;;21.90;59.10;;;;;;7392182;19;2892;-63
2023/10/25 07:24:46;;;;;;;;;;;22.00;58.70;;;;;;7393104;19;3468;-63
2023/10/25 07:27:12;;;;;;;;;;;22.00;58.70;;;;;;7393101;19;1768;-63
2023/10/25 07:29:37;;;;;;;;;;;22.00;58.50;;;;;;7391441;19;1872;-64
2023/10/25 07:32:06;;;;;;;;;;;22.10;58.50;;;;;;7390825;19;3401;-61
2023/10/25 07:34:31;;;;;;;;;;;22.20;58.10;;;;;;7395042;19;1465;-63
2023/10/25 07:36:56;;;;;;;;;;;22.40;57.90;;;;;;7392695;19;1824;-63
2023/10/25 07:39:22;;;;;;;;;;;22.50;57.40;;;;;;7395290;19;1995;-64
2023/10/25 07:41:47;;;;;;;;;;;22.60;57.10;;;;;;7390767;19;5522;-64
2023/10/25 07:44:13;;;;;;;;;;;22.70;57.00;;;;;;7393013;19;3025;-63
2023/10/25 07:46:38;;;;;;;;;;;22.80;56.90;;;;;;7384249;19;5046;-64
2023/10/25 07:49:04;;;;;;;;;;;22.80;56.80;;;;;;7393525;19;3965;-64
2023/10/25 07:51:29;;;;;;;;;;;22.90;56.70;;;;;;7390494;19;1923;-64
2023/10/25 07:53:55;;;;;;;;;;;23.00;56.60;;;;;;7394250;19;3179;-63
2023/10/25 07:56:20;;;;;;;;;;;23.00;56.50;;;;;;7391522;19;2897;-64
2023/10/25 07:58:45;;;;;;;;;;;23.00;56.50;;;;;;7389962;19;3356;-64
2023/10/25 08:01:14;;;;;;;;;;;23.10;56.40;;;;;;7388360;19;3405;-63
2023/10/25 08:03:39;;;;;;;;;;;23.10;56.30;;;;;;7392050;19;4826;-60
2023/10/25 08:06:05;;;;;;;;;;;23.10;56.40;;;;;;7389200;19;3718;-61
2023/10/25 08:08:31;;;;;;;;;;;23.00;56.40;;;;;;7388748;19;3927;-61
2023/10/25 08:11:03;;;;;;;;;;;23.10;56.30;;;;;;7392238;19;2760;-60
2023/10/25 08:13:32;;;;;;;;;;;23.00;56.30;;;;;;7386224;19;3562;-61
2023/10/25 08:15:58;;;;;;;;;;;23.00;56.40;;;;;;7388944;19;3388;-61
2023/10/25 08:18:23;;;;;;;;;;;23.10;56.40;;;;;;7392067;19;3406;-63
2023/10/25 08:20:48;;;;;;;;;;;23.10;56.50;;;;;;7387122;19;3337;-63
2023/10/25 08:23:14;;;;;;;;;;;23.00;56.50;;;;;;7383006;19;4227;-61
2023/10/25 08:25:39;;;;;;;;;;;23.00;56.60;;;;;;7395264;19;3945;-62
2023/10/25 08:28:05;;;;;;;;;;;23.00;56.80;;;;;;7397184;19;1769;-61
2023/10/25 08:30:30;;;;;;;;;;;23.10;56.50;;;;;;7396783;19;1880;-60
2023/10/25 08:32:56;;;;;;;;;;;23.10;56.40;;;;;;7399507;19;4258;-61
2023/10/25 08:35:21;;;;;;;;;;;23.20;56.30;;;;;;7395734;19;3690;-62
2023/10/25 08:37:46;;;;;;;;;;;23.20;56.20;;;;;;7397493;19;2595;-61
2023/10/25 08:40:12;;;;;;;;;;;23.40;55.90;;;;;;7399291;19;3188;-60
2023/10/25 08:42:37;;;;;;;;;;;23.50;55.80;;;;;;7396301;19;3554;-62
2023/10/25 08:45:04;;;;;;;;;;;23.50;55.70;;;;;;7399299;19;1785;-63
2023/10/25 08:47:29;;;;;;;;;;;23.60;55.60;;;;;;7396620;19;5118;-61
2023/10/25 08:49:54;;;;;;;;;;;23.70;55.40;;;;;;7399044;19;3238;-63
2023/10/25 08:52:21;;;;;;;;;;;23.60;55.50;;;;;;7398499;19;3147;-60
2023/10/25 08:54:47;;;;;;;;;;;23.60;55.40;;;;;;7398156;19;3927;-65
2023/10/25 08:57:12;;;;;;;;;;;23.40;55.80;;;;;;7398667;19;1671;-62
2023/10/25 08:59:42;;;;;;;;;;;23.50;55.90;;;;;;7398328;19;3352;-64
2023/10/25 09:02:08;;;;;;;;;;;23.40;56.20;;;;;;7392412;19;3619;-63
2023/10/25 09:04:33;;;;;;;;;;;23.60;56.00;;;;;;7395121;19;4379;-63
2023/10/25 09:06:58;;;;;;;;;;;23.70;55.80;;;;;;7398380;19;3926;-61
2023/10/25 09:09:24;;;;;;;;;;;23.80;55.70;;;;;;7400832;19;1913;-62
2023/10/25 09:11:49;;;;;;;;;;;23.80;55.60;;;;;;7392560;19;5244;-61
2023/10/25 09:14:15;;;;;;;;;;;23.80;55.70;;;;;;7397187;19;4473;-63
2023/10/25 09:16:44;;;;;;;;;;;23.80;55.80;;;;;;7395634;19;3365;-63
2023/10/25 09:19:09;;;;;;;;;;;23.80;55.70;;;;;;7399837;19;1869;-62
2023/10/25 09:21:34;;;;;;;;;;;23.80;55.60;;;;;;7399953;19;1797;-62
2023/10/25 09:24:02;;;;;;;;;;;23.70;55.70;;;;;;7398096;19;3492;-63
2023/10/25 09:26:35;;;;;;;;;;;23.70;55.80;;;;;;7397056;19;3090;-63
2023/10/25 09:29:00;;;;;;;;;;;23.80;55.80;;;;;;7394610;19;3777;-63
2023/10/25 09:31:29;;;;;;;;;;;23.80;55.60;;;;;;7392201;19;4481;-61
2023/10/25 09:33:57;;;;;;;;;;;23.80;55.70;;;;;;7399979;19;1813;-61
2023/10/25 09:36:23;;;;;;;;;;;23.90;55.60;;;;;;7397279;19;1889;-63
2023/10/25 09:38:49;;;;;;;;;;;23.90;55.60;;;;;;7392731;19;3750;-62
2023/10/25 09:41:15;;;;;;;;;;;23.80;55.60;;;;;;7393412;19;3603;-61
2023/10/25 09:43:47;;;;;;;;;;;23.90;55.70;;;;;;7398426;19;1894;-61
2023/10/25 09:46:14;;;;;;;;;;;23.80;55.70;;;;;;7394516;19;4262;-61
2023/10/25 09:48:39;;;;;;;;;;;23.80;55.60;;;;;;7391403;19;4511;-62
2023/10/25 09:51:24;;;;;;;;;;;23.90;55.60;;;;;;7392992;19;2536;-63
2023/10/25 09:54:13;;;;;;;;;;;23.90;55.70;;;;;;7395681;19;1701;-62
2023/10/25 09:56:39;;;;;;;;;;;24.00;55.50;;;;;;7395875;19;1750;-65
2023/10/25 09:59:04;;;;;;;;;;;24.10;55.50;;;;;;7399125;19;1892;-64
2023/10/25 10:01:30;;;;;;;;;;;24.10;55.50;;;;;;7392975;19;4191;-65
2023/10/25 10:03:57;;;;;;;;;;;24.20;55.30;;;;;;7395188;19;4201;-63
2023/10/25 10:06:23;;;;;;;;;;;24.10;55.30;;;;;;7387822;19;5315;-63
2023/10/25 10:08:51;;;;;;;;;;;24.10;55.40;;;;;;7392494;19;3466;-64
2023/10/25 10:11:18;;;;;;;;;;;24.20;55.30;;;;;;7388857;19;5287;-65
2023/10/25 10:13:43;;;;;;;;;;;24.20;55.30;;;;;;7395195;19;3155;-63
2023/10/25 10:16:09;;;;;;;;;;;24.20;55.30;;;;;;7390040;19;3739;-63
2023/10/25 10:18:35;;;;;;;;;;;24.30;55.20;;;;;;7390952;19;3718;-63
2023/10/25 10:21:01;;;;;;;;;;;24.30;55.10;;;;;;7394942;19;2870;-63
2023/10/25 10:23:35;;;;;;;;;;;24.40;55.10;;;;;;7397655;19;2760;-62
2023/10/25 10:26:01;;;;;;;;;;;24.30;55.70;;;;;;7395045;19;2004;-62
2023/10/25 10:28:56;;;;;;;;;;;24.30;55.30;;;;;;7394300;19;1695;-62
2023/10/25 10:31:21;;;;;;;;;;;24.10;55.50;;;;;;7394099;19;1862;-63
2023/10/25 10:33:47;;;;;;;;;;;24.20;55.50;;;;;;7397837;19;1651;-63
2023/10/25 10:36:31;;;;;;;;;;;24.10;55.60;;;;;;7392273;19;3649;-64
2023/10/25 10:39:16;;;;;;;;;;;24.20;55.70;;;;;;7396673;19;3719;-63
2023/10/25 10:41:42;;;;;;;;;;;24.20;55.60;;;;;;7392777;19;3487;-64
2023/10/25 10:44:07;;;;;;;;;;;24.30;55.50;;;;;;7383661;19;4069;-63
2023/10/25 10:46:34;;;;;;;;;;;24.30;55.40;;;;;;7384427;19;4974;-62
2023/10/25 10:49:00;;;;;;;;;;;24.20;55.70;;;;;;7385463;19;5028;-62
2023/10/25 10:51:26;;;;;;;;;;;24.00;56.10;;;;;;7385523;19;4414;-61
2023/10/25 10:53:51;;;;;;;;;;;23.90;56.50;;;;;;7389929;19;5915;-61
2023/10/25 10:56:16;;;;;;;;;;;23.90;56.80;;;;;;7392856;19;3689;-62
2023/10/25 10:58:42;;;;;;;;;;;23.90;56.70;;;;;;7391524;19;5041;-63
2023/10/25 11:01:08;;;;;;;;;;;24.00;56.50;;;;;;7392561;19;5150;-63
2023/10/25 11:03:36;;;;;;;;;;;24.10;56.30;;;;;;7393836;19;3498;-62
2023/10/25 11:06:03;;;;;;;;;;;24.20;56.10;;;;;;7387977;19;5703;-64
2023/10/25 11:08:28;;;;;;;;;;;24.20;55.90;;;;;;7390808;19;4973;-64
2023/10/25 11:10:54;;;;;;;;;;;24.30;55.90;;;;;;7393714;19;1848;-62
2023/10/25 11:13:19;;;;;;;;;;;24.30;55.90;;;;;;7389356;19;5100;-62
2023/10/25 11:15:45;;;;;;;;;;;24.30;55.90;;;;;;7391146;19;3685;-63
2023/10/25 11:18:10;;;;;;;;;;;24.30;56.00;;;;;;7395303;19;1677;-62
2023/10/25 11:20:35;;;;;;;;;;;24.30;56.00;;;;;;7394888;19;1984;-63
2023/10/25 11:23:02;;;;;;;;;;;24.30;56.10;;;;;;7394283;19;1726;-62
2023/10/25 11:25:29;;;;;;;;;;;24.20;56.20;;;;;;7393398;19;3221;-64
2023/10/25 11:27:55;;;;;;;;;;;24.00;56.50;;;;;;7391542;19;3557;-63
2023/10/25 11:30:21;;;;;;;;;;;24.00;56.70;;;;;;7388252;19;3623;-61
2023/10/25 11:32:47;;;;;;;;;;;23.90;57.00;;;;;;7388841;19;5803;-62
2023/10/25 11:35:20;;;;;;;;;;;23.90;56.90;;;;;;7389487;19;4885;-63
2023/10/25 11:37:49;;;;;;;;;;;24.00;57.20;;;;;;7388857;19;2735;-61
2023/10/25 11:40:14;;;;;;;;;;;24.20;56.70;;;;;;7387635;19;4505;-62
2023/10/25 11:42:40;;;;;;;;;;;24.20;56.60;;;;;;7385889;19;3310;-62
2023/10/25 11:45:06;;;;;;;;;;;24.20;56.60;;;;;;7387239;19;4549;-62
2023/10/25 11:47:32;;;;;;;;;;;24.20;56.60;;;;;;7382953;19;4142;-63
2023/10/25 11:49:57;;;;;;;;;;;24.30;56.50;;;;;;7386383;19;3646;-63
2023/10/25 11:52:23;;;;;;;;;;;24.40;56.40;;;;;;7388470;19;4294;-62
2023/10/25 11:54:55;;;;;;;;;;;24.50;56.30;;;;;;7390735;19;3354;-63
2023/10/25 11:57:21;;;;;;;;;;;24.40;56.10;;;;;;7391273;19;3547;-63
2023/10/25 11:59:46;;;;;;;;;;;24.20;56.70;;;;;;7395138;19;3588;-63
2023/10/25 12:02:12;;;;;;;;;;;24.20;56.90;;;;;;7398276;19;1749;-64
2023/10/25 12:04:37;;;;;;;;;;;24.20;56.90;;;;;;7400108;19;3490;-63
2023/10/25 12:07:02;;;;;;;;;;;24.20;56.90;;;;;;7398654;19;3825;-64
2023/10/25 12:09:28;;;;;;;;;;;24.20;56.90;;;;;;7399164;19;3485;-61
2023/10/25 12:11:54;;;;;;;;;;;24.30;57.00;;;;;;7397775;19;5806;-61
2023/10/25 12:14:20;;;;;;;;;;;24.20;57.00;;;;;;7396542;19;4957;-63
2023/10/25 12:16:45;;;;;;;;;;;24.30;57.10;;;;;;7391247;19;3577;-64
2023/10/25 12:19:11;;;;;;;;;;;24.30;57.20;;;;;;7398075;19;4577;-61
2023/10/25 12:21:36;;;;;;;;;;;24.30;57.90;;;;;;7395151;19;3503;-64
2023/10/25 12:24:02;;;;;;;;;;;24.20;57.20;;;;;;7395522;19;3575;-63
2023/10/25 12:26:27;;;;;;;;;;;24.10;57.50;;;;;;7393188;19;5779;-64
2023/10/25 12:28:53;;;;;;;;;;;24.30;57.40;;;;;;7388537;19;5221;-63
2023/10/25 12:31:18;;;;;;;;;;;24.30;57.40;;;;;;7391818;19;4655;-64
2023/10/25 12:33:44;;;;;;;;;;;24.30;57.30;;;;;;7393381;19;4793;-62
2023/10/25 12:36:09;;;;;;;;;;;24.20;57.40;;;;;;7392737;19;3130;-63
2023/10/25 12:38:34;;;;;;;;;;;24.30;57.10;;;;;;7394524;19;4758;-63
2023/10/25 12:41:00;;;;;;;;;;;24.40;57.10;;;;;;7397707;19;2284;-61
2023/10/25 12:43:25;;;;;;;;;;;24.40;57.10;;;;;;7392596;19;4654;-63
2023/10/25 12:45:51;;;;;;;;;;;24.50;57.00;;;;;;7394912;19;4804;-64
2023/10/25 12:48:16;;;;;;;;;;;24.60;56.90;;;;;;7397371;19;3867;-63
2023/10/25 12:50:42;;;;;;;;;;;24.60;56.80;;;;;;7398485;19;3989;-63
2023/10/25 12:53:07;;;;;;;;;;;24.50;56.90;;;;;;7401011;19;1678;-64
2023/10/25 12:55:33;;;;;;;;;;;24.50;56.70;;;;;;7396435;19;3939;-64
2023/10/25 12:57:58;;;;;;;;;;;24.60;56.90;;;;;;7397217;19;5315;-62
2023/10/25 13:00:24;;;;;;;;;;;24.50;57.10;;;;;;7396407;19;3565;-63
2023/10/25 13:02:49;;;;;;;;;;;24.30;57.30;;;;;;7390855;19;4253;-62
2023/10/25 13:05:15;;;;;;;;;;;24.30;57.50;;;;;;7389587;19;5439;-61
2023/10/25 13:07:43;;;;;;;;;;;24.30;57.60;;;;;;7395865;19;4669;-63
2023/10/25 13:10:08;;;;;;;;;;;24.40;57.50;;;;;;7391716;19;4958;-62
2023/10/25 13:12:35;;;;;;;;;;;24.40;57.50;;;;;;7394848;19;3585;-63
2023/10/25 13:15:01;;;;;;;;;;;24.40;57.40;;;;;;7396371;19;3846;-64
2023/10/25 13:17:26;;;;;;;;;;;24.50;57.40;;;;;;7396735;19;4178;-63
2023/10/25 13:19:53;;;;;;;;;;;24.50;57.30;;;;;;7396001;19;3159;-63
2023/10/25 13:22:18;;;;;;;;;;;24.70;57.10;;;;;;7392571;19;3601;-62
2023/10/25 13:24:44;;;;;;;;;;;24.70;57.00;;;;;;7396052;19;4161;-63
2023/10/25 13:27:09;;;;;;;;;;;24.70;57.00;;;;;;7397866;19;2482;-63
2023/10/25 13:29:35;;;;;;;;;;;24.60;57.20;;;;;;7385803;19;5499;-62
2023/10/25 13:32:00;;;;;;;;;;;24.40;57.50;;;;;;7395317;19;3466;-63
2023/10/25 13:34:26;;;;;;;;;;;24.30;57.70;;;;;;7389637;19;5501;-62
2023/10/25 13:36:51;;;;;;;;;;;24.40;57.60;;;;;;7393817;19;4974;-63
2023/10/25 13:39:16;;;;;;;;;;;24.40;57.60;;;;;;7397033;19;5164;-62
2023/10/25 13:41:42;;;;;;;;;;;24.50;57.50;;;;;;7393699;19;4296;-66
2023/10/25 13:44:07;;;;;;;;;;;24.50;57.50;;;;;;7394722;19;4010;-63
2023/10/25 13:46:33;;;;;;;;;;;24.40;57.70;;;;;;7388208;19;5342;-63
2023/10/25 13:48:58;;;;;;;;;;;24.50;57.70;;;;;;7388720;19;5123;-65
2023/10/25 13:51:24;;;;;;;;;;;24.40;57.80;;;;;;7391580;19;5057;-63
2023/10/25 13:53:49;;;;;;;;;;;24.50;57.70;;;;;;7394087;19;5005;-63
2023/10/25 13:56:19;;;;;;;;;;;24.50;57.60;;;;;;7393940;19;5175;-64
2023/10/25 13:58:44;;;;;;;;;;;24.60;57.50;;;;;;7398416;19;3217;-64
2023/10/25 14:01:10;;;;;;;;;;;24.70;57.40;;;;;;7393888;19;5055;-63
2023/10/25 14:03:35;;;;;;;;;;;24.60;57.20;;;;;;7396816;19;3491;-63
2023/10/25 14:06:04;;;;;;;;;;;24.60;57.40;;;;;;7394240;19;3993;-62
2023/10/25 14:08:33;;;;;;;;;;;24.50;57.70;;;;;;7389406;19;4921;-63
2023/10/25 14:10:58;;;;;;;;;;;24.50;57.80;;;;;;7393045;19;3398;-62
2023/10/25 14:13:23;;;;;;;;;;;24.40;57.90;;;;;;7391766;19;4428;-63
2023/10/25 14:15:49;;;;;;;;;;;24.40;58.00;;;;;;7393121;19;5186;-63
2023/10/25 14:18:14;;;;;;;;;;;24.40;58.00;;;;;;7396326;19;1725;-63
2023/10/25 14:20:40;;;;;;;;;;;24.30;58.50;;;;;;7390851;19;3619;-63
2023/10/25 14:23:06;;;;;;;;;;;24.20;58.40;;;;;;7391541;19;5749;-64
2023/10/25 14:25:31;;;;;;;;;;;24.10;58.60;;;;;;7391739;19;4511;-65